Time;durP1;ratioP1;P1;durP2;ratioP2;P2;SDS_P1;SDS_P2;PMS_P1;PMS_P2;Temp;Humidity;BMP_temperature;BMP_pressure;BME280_temperature;BME280_humidity;BME280_pressure;Samples;Min_cycle;Max_cycle;Signal;HPM_P1;HPM_P2
2022/11/18 00:00:55;;;;;;;13.20;10.23;;;7.50;99.90;;;;;;5063190;28;20036;-78
2022/11/18 00:03:21;;;;;;;13.30;9.93;;;8.20;99.90;;;;;;5053494;28;20477;-78
2022/11/18 00:05:54;;;;;;;14.48;10.55;;;8.20;99.90;;;;;;5059699;28;20040;-78
2022/11/18 00:08:20;;;;;;;14.43;9.60;;;8.30;99.90;;;;;;5050576;28;20097;-79
2022/11/18 00:10:46;;;;;;;13.95;10.02;;;8.30;99.90;;;;;;5041827;28;20122;-78
2022/11/18 00:16:14;;;;;;;14.63;10.15;;;8.80;99.90;;;;;;5059134;28;20048;-77
2022/11/18 00:18:39;;;;;;;13.57;9.60;;;8.80;99.90;;;;;;5034224;28;20351;-78
2022/11/18 00:21:08;;;;;;;14.25;9.40;;;8.30;99.90;;;;;;5060797;28;20124;-78
2022/11/18 00:23:34;;;;;;;14.07;10.45;;;8.40;99.90;;;;;;5060745;28;20033;-78
2022/11/18 00:26:08;;;;;;;14.02;9.52;;;9.20;99.90;;;;;;5053364;28;20093;-78
2022/11/18 00:28:34;;;;;;;13.48;9.65;;;8.30;99.90;;;;;;5065184;28;20041;-78
2022/11/18 00:31:02;;;;;;;13.95;9.55;;;8.40;99.90;;;;;;5060685;28;20560;-78
2022/11/18 00:33:28;;;;;;;14.63;10.07;;;8.30;99.90;;;;;;5052323;28;20387;-78
2022/11/18 00:35:54;;;;;;;13.50;9.93;;;8.20;99.90;;;;;;5059820;28;20437;-78
2022/11/18 00:38:19;;;;;;;13.35;9.88;;;8.20;99.90;;;;;;5065628;28;20033;-77
2022/11/18 00:40:45;;;;;;;14.45;10.13;;;8.10;99.90;;;;;;5059237;28;20382;-77
2022/11/18 00:43:11;;;;;;;14.93;10.35;;;8.20;99.90;;;;;;5043811;28;20044;-77
2022/11/18 00:45:36;;;;;;;13.90;10.27;;;8.20;99.90;;;;;;5055400;28;20407;-77
2022/11/18 00:48:02;;;;;;;15.88;11.27;;;8.20;99.90;;;;;;5027076;28;20041;-77
2022/11/18 00:50:27;;;;;;;15.02;9.93;;;8.20;99.90;;;;;;5060121;28;20048;-77
2022/11/18 00:52:53;;;;;;;17.08;11.43;;;8.20;99.90;;;;;;5047751;28;20122;-77
2022/11/18 00:55:19;;;;;;;17.48;12.13;;;8.90;99.90;;;;;;5057030;28;20160;-77
2022/11/18 00:57:44;;;;;;;19.58;11.88;;;8.20;99.90;;;;;;5062059;28;20036;-77
2022/11/18 01:00:10;;;;;;;17.35;12.70;;;8.20;99.90;;;;;;5052264;28;20441;-77
2022/11/18 01:02:36;;;;;;;19.35;13.60;;;8.10;99.90;;;;;;5052826;28;20497;-77
2022/11/18 01:05:02;;;;;;;19.60;13.55;;;8.10;99.90;;;;;;5058637;28;20341;-76
2022/11/18 01:07:28;;;;;;;20.35;14.25;;;8.10;99.90;;;;;;5055401;28;20040;-77
2022/11/18 01:09:54;;;;;;;22.58;14.57;;;8.10;99.90;;;;;;5059180;28;20055;-76
2022/11/18 01:15:04;;;;;;;23.08;16.17;;;8.10;99.90;;;;;;5050924;28;20041;-76
2022/11/18 01:17:30;;;;;;;25.58;17.83;;;8.10;99.90;;;;;;5053362;28;20063;-77
2022/11/18 01:19:56;;;;;;;26.33;18.05;;;8.10;99.90;;;;;;5058739;28;20086;-77
2022/11/18 01:22:22;;;;;;;27.40;18.08;;;8.10;99.90;;;;;;5049707;28;20029;-77
2022/11/18 01:24:47;;;;;;;26.27;17.58;;;8.10;99.90;;;;;;5041050;28;20059;-78
2022/11/18 01:27:13;;;;;;;27.10;18.73;;;8.20;99.90;;;;;;5048789;28;20069;-76
2022/11/18 01:29:38;;;;;;;30.65;18.95;;;8.20;99.90;;;;;;5048686;28;20040;-76
2022/11/18 01:32:04;;;;;;;29.45;18.75;;;8.20;99.90;;;;;;5057124;28;20482;-76
2022/11/18 01:34:30;;;;;;;29.75;18.70;;;8.20;99.90;;;;;;5058544;28;20120;-77
2022/11/18 01:36:57;;;;;;;27.30;18.25;;;8.40;99.90;;;;;;5053530;28;20037;-77
2022/11/18 01:39:23;;;;;;;32.80;18.73;;;8.50;99.90;;;;;;5061113;28;20068;-77
2022/11/18 01:41:48;;;;;;;28.60;18.88;;;8.20;99.90;;;;;;5062747;28;20071;-78
2022/11/18 01:44:52;;;;;;;29.38;18.60;;;8.20;99.90;;;;;;5047522;28;20485;-78
2022/11/18 01:47:18;;;;;;;30.27;19.08;;;8.20;99.90;;;;;;5053188;28;20033;-77
2022/11/18 01:49:44;;;;;;;32.03;19.67;;;8.20;99.90;;;;;;5051862;28;20045;-78
2022/11/18 01:52:10;;;;;;;31.13;20.20;;;8.80;99.90;;;;;;5031335;28;20098;-78
2022/11/18 01:54:39;;;;;;;33.78;19.30;;;8.20;99.90;;;;;;5031645;28;20035;-78
2022/11/18 01:57:10;;;;;;;32.08;19.90;;;8.20;99.90;;;;;;5033031;28;20044;-78
2022/11/18 01:59:40;;;;;;;33.65;20.88;;;8.20;99.90;;;;;;5064415;28;20036;-78
2022/11/18 02:02:10;;;;;;;34.97;20.77;;;8.30;99.90;;;;;;5044181;28;20128;-78
2022/11/18 02:04:39;;;;;;;33.28;20.27;;;8.30;99.90;;;;;;5065695;28;20119;-77
2022/11/18 02:07:06;;;;;;;30.00;18.75;;;8.40;99.90;;;;;;5035439;28;20041;-78
2022/11/18 02:09:31;;;;;;;33.53;20.33;;;8.20;99.90;;;;;;5050332;28;20115;-78
2022/11/18 02:11:57;;;;;;;35.58;20.58;;;8.30;99.90;;;;;;5050614;28;20532;-78
2022/11/18 02:14:29;;;;;;;35.65;21.77;;;8.30;99.90;;;;;;5060286;28;20055;-78
2022/11/18 02:17:10;;;;;;;33.72;21.27;;;8.30;99.90;;;;;;5054193;28;20443;-77
2022/11/18 02:19:47;;;;;;;35.10;21.25;;;8.30;99.90;;;;;;5061549;28;20052;-77
2022/11/18 02:22:41;;;;;;;35.33;21.40;;;8.00;99.90;;;;;;5057357;28;20033;-77
2022/11/18 02:25:33;;;;;;;33.60;20.67;;;8.30;99.90;;;;;;5048202;28;20037;-77
2022/11/18 02:28:02;;;;;;;;;;;8.30;99.90;;;;;;5064437;28;20041;-77
2022/11/18 02:30:32;;;;;;;36.45;21.33;;;8.40;99.90;;;;;;5042805;28;19917;-78
2022/11/18 02:33:07;;;;;;;33.67;21.23;;;8.40;99.90;;;;;;5054784;28;20041;-78
2022/11/18 02:35:38;;;;;;;33.67;21.80;;;8.30;99.90;;;;;;5059402;28;20366;-77
2022/11/18 02:38:10;;;;;;;37.65;21.90;;;8.40;99.90;;;;;;5049842;28;20041;-77
2022/11/18 02:40:42;;;;;;;32.85;21.58;;;8.40;99.90;;;;;;5067988;28;20029;-77
2022/11/18 02:43:15;;;;;;;32.25;21.40;;;8.20;99.90;;;;;;5050866;28;20046;-78
2022/11/18 02:45:47;;;;;;;36.58;21.25;;;8.40;99.90;;;;;;5067672;28;20373;-78
2022/11/18 02:48:15;;;;;;;34.38;20.90;;;8.40;99.90;;;;;;5064242;28;20044;-77
2022/11/18 02:50:43;;;;;;;34.63;21.10;;;8.40;99.90;;;;;;5055875;28;20102;-77
2022/11/18 02:53:12;;;;;;;34.08;20.65;;;8.40;99.90;;;;;;5037693;28;20131;-78
2022/11/18 02:55:39;;;;;;;33.90;20.85;;;8.40;99.90;;;;;;5037644;28;20512;-78
2022/11/18 02:58:06;;;;;;;33.30;20.55;;;8.40;99.90;;;;;;5058849;28;20437;-78
2022/11/18 03:00:32;;;;;;;40.63;22.50;;;8.50;99.90;;;;;;5062401;28;20036;-78
2022/11/18 03:02:59;;;;;;;36.20;22.13;;;8.50;99.90;;;;;;5055544;28;20041;-77
2022/11/18 03:05:38;;;;;;;38.72;23.15;;;8.50;99.90;;;;;;5036746;28;20131;-77
2022/11/18 03:08:18;;;;;;;40.40;23.85;;;8.50;99.90;;;;;;5061168;28;20032;-77
2022/11/18 03:10:53;;;;;;;43.30;23.52;;;8.50;99.90;;;;;;5057292;28;20048;-77
2022/11/18 03:13:33;;;;;;;42.65;25.73;;;8.50;99.90;;;;;;5051541;28;20041;-77
2022/11/18 03:16:08;;;;;;;47.33;26.52;;;8.50;99.90;;;;;;5054408;28;20043;-77
2022/11/18 03:18:45;;;;;;;44.80;26.77;;;8.50;99.90;;;;;;5061799;28;20061;-77
2022/11/18 03:21:18;;;;;;;50.38;27.65;;;8.50;99.90;;;;;;5054934;28;20068;-77
2022/11/18 03:24:10;;;;;;;50.22;28.88;;;8.40;99.90;;;;;;5061368;28;20046;-77
2022/11/18 03:26:39;;;;;;;51.57;28.50;;;8.50;99.90;;;;;;5065143;28;20153;-77
2022/11/18 03:29:25;;;;;;;49.58;28.60;;;8.50;99.90;;;;;;5054461;28;20359;-77
2022/11/18 03:31:59;;;;;;;50.20;28.45;;;8.40;99.90;;;;;;5035770;28;20048;-77
2022/11/18 03:34:38;;;;;;;46.85;28.50;;;8.40;99.90;;;;;;5048951;28;20432;-77
2022/11/18 03:37:08;;;;;;;47.55;28.67;;;8.50;99.90;;;;;;5051874;28;20072;-78
2022/11/18 03:39:41;;;;;;;49.60;28.98;;;8.50;99.90;;;;;;5060176;28;20393;-78
2022/11/18 03:42:13;;;;;;;55.22;28.75;;;8.50;99.90;;;;;;5067568;28;20046;-78
2022/11/18 03:44:42;;;;;;;49.92;29.77;;;8.50;99.90;;;;;;5048538;28;20393;-78
2022/11/18 03:47:13;;;;;;;48.95;29.20;;;8.50;99.90;;;;;;5051886;28;20493;-78
2022/11/18 03:50:11;;;;;;;51.03;30.15;;;8.50;99.90;;;;;;5050848;28;20083;-78
2022/11/18 03:52:39;;;;;;;50.08;29.50;;;8.50;99.90;;;;;;5051259;28;20087;-78
2022/11/18 03:55:11;;;;;;;54.90;29.27;;;8.50;99.90;;;;;;5063076;28;20515;-78
2022/11/18 03:57:45;;;;;;;;;;;8.40;99.90;;;;;;5069962;28;20040;-78
2022/11/18 04:00:14;;;;;;;49.75;28.10;;;8.40;99.90;;;;;;5044371;28;19928;-78
2022/11/18 04:02:40;;;;;;;48.20;28.27;;;8.40;99.90;;;;;;5033227;28;20045;-78
2022/11/18 04:05:09;;;;;;;45.53;27.35;;;8.80;99.90;;;;;;5045297;28;20060;-78
2022/11/18 04:07:44;;;;;;;48.78;29.00;;;8.50;99.90;;;;;;5040763;28;20050;-78
2022/11/18 04:10:20;;;;;;;48.47;27.17;;;8.40;99.90;;;;;;5037498;28;20595;-78
2022/11/18 04:13:09;;;;;;;48.15;27.15;;;8.50;99.90;;;;;;5037511;28;20090;-78
2022/11/18 04:15:40;;;;;;;46.65;27.08;;;8.80;99.90;;;;;;5056027;28;20030;-78
2022/11/18 04:18:06;;;;;;;44.08;27.55;;;8.50;99.90;;;;;;5050338;28;20044;-78
2022/11/18 04:20:32;;;;;;;43.80;26.88;;;9.40;99.90;;;;;;5047837;28;20050;-78
2022/11/18 04:22:59;;;;;;;44.05;26.92;;;8.50;99.90;;;;;;5050041;28;20038;-78
2022/11/18 04:25:25;;;;;;;44.63;26.67;;;8.40;99.90;;;;;;5056123;28;20053;-78
2022/11/18 04:27:50;;;;;;;49.70;28.20;;;8.50;99.90;;;;;;5045564;28;20060;-78
2022/11/18 04:30:17;;;;;;;52.88;28.35;;;8.50;99.90;;;;;;5054548;28;20492;-78
2022/11/18 04:32:43;;;;;;;50.92;29.02;;;8.50;99.90;;;;;;5048942;28;20115;-78
2022/11/18 04:35:08;;;;;;;49.97;30.13;;;8.40;99.90;;;;;;5032930;28;20036;-78
2022/11/18 04:37:34;;;;;;;49.15;29.65;;;8.50;99.90;;;;;;5048732;28;20115;-78
2022/11/18 04:40:00;;;;;;;48.45;29.02;;;8.40;99.90;;;;;;5043223;28;20116;-78
2022/11/18 04:42:25;;;;;;;50.30;28.25;;;8.40;99.90;;;;;;5064964;28;20036;-78
2022/11/18 04:44:51;;;;;;;48.20;27.80;;;9.40;99.90;;;;;;5045294;28;20083;-78
2022/11/18 04:47:16;;;;;;;51.53;29.17;;;8.50;99.90;;;;;;5058772;28;20041;-78
2022/11/18 04:49:42;;;;;;;48.60;27.77;;;8.50;99.90;;;;;;5040671;28;20045;-78
2022/11/18 04:52:07;;;;;;;47.58;27.55;;;8.40;99.90;;;;;;5049875;28;20714;-78
2022/11/18 04:54:33;;;;;;;49.50;27.52;;;8.50;99.90;;;;;;5044821;28;20037;-78
2022/11/18 04:56:59;;;;;;;46.90;28.35;;;8.90;99.90;;;;;;5059606;28;20037;-78
2022/11/18 04:59:27;;;;;;;41.42;26.35;;;8.50;99.90;;;;;;5060510;28;20048;-78
2022/11/18 05:01:53;;;;;;;50.58;26.10;;;8.50;99.90;;;;;;5052767;28;20037;-78
2022/11/18 05:04:21;;;;;;;42.30;26.00;;;8.50;99.90;;;;;;5055410;28;20045;-78
2022/11/18 05:06:47;;;;;;;42.22;26.80;;;8.50;99.90;;;;;;5040052;28;20070;-78
2022/11/18 05:09:14;;;;;;;44.30;27.42;;;8.40;99.90;;;;;;5056726;28;20124;-78
2022/11/18 05:14:26;;;;;;;43.38;25.80;;;8.50;99.90;;;;;;5048966;28;20093;-78
2022/11/18 05:16:52;;;;;;;44.78;26.35;;;8.40;99.90;;;;;;5062690;28;20033;-78
2022/11/18 05:19:17;;;;;;;46.20;27.25;;;8.70;99.90;;;;;;5030434;28;20504;-78
2022/11/18 05:21:43;;;;;;;42.08;25.58;;;9.30;99.90;;;;;;5049945;28;20029;-78
2022/11/18 05:24:08;;;;;;;41.13;25.27;;;8.40;99.90;;;;;;5058188;28;20040;-78
2022/11/18 05:26:34;;;;;;;46.72;25.13;;;8.50;99.90;;;;;;5062562;28;20043;-78
2022/11/18 05:28:59;;;;;;;44.40;26.05;;;8.50;99.90;;;;;;5053160;28;20041;-78
2022/11/18 05:31:25;;;;;;;46.08;26.00;;;8.50;99.90;;;;;;5053978;28;20040;-77
2022/11/18 05:33:51;;;;;;;43.28;26.33;;;8.50;99.90;;;;;;5046097;28;20110;-77
2022/11/18 05:36:18;;;;;;;43.72;25.70;;;8.50;99.90;;;;;;5063833;28;20033;-77
2022/11/18 05:38:44;;;;;;;42.67;25.33;;;8.50;99.90;;;;;;5051417;28;20040;-77
2022/11/18 05:43:09;;;;;;;38.40;24.33;;;8.90;99.90;;;;;;5052618;28;20107;-77
2022/11/18 05:43:55;;;;;;;42.00;24.98;;;8.40;99.90;;;;;;5066419;28;20040;-79
2022/11/18 05:46:21;;;;;;;41.35;25.15;;;8.50;99.90;;;;;;5057999;28;20504;-78
2022/11/18 05:48:46;;;;;;;40.75;23.75;;;8.40;99.90;;;;;;5050453;28;20079;-78
2022/11/18 05:51:12;;;;;;;36.78;24.08;;;8.40;99.90;;;;;;5053220;28;20048;-77
2022/11/18 05:53:37;;;;;;;43.80;24.98;;;8.50;99.90;;;;;;5059151;28;20079;-77
2022/11/18 05:56:27;;;;;;;43.08;24.45;;;8.40;99.90;;;;;;5051382;28;20113;-78
2022/11/18 05:58:53;;;;;;;39.22;23.95;;;8.50;99.90;;;;;;5062401;28;20041;-78
2022/11/18 06:01:23;;;;;;;42.53;24.73;;;8.40;99.90;;;;;;5063711;28;20046;-78
2022/11/18 06:03:49;;;;;;;40.72;24.20;;;8.40;99.90;;;;;;5049777;28;20045;-78
2022/11/18 06:06:19;;;;;;;41.13;25.63;;;8.40;99.90;;;;;;5053861;28;20507;-78
2022/11/18 06:09:01;;;;;;;47.35;26.10;;;9.00;99.90;;;;;;5057223;28;20124;-78
2022/11/18 06:11:28;;;;;;;45.58;26.33;;;8.40;99.90;;;;;;5048550;28;20119;-77
2022/11/18 06:14:00;;;;;;;45.58;26.50;;;8.40;99.90;;;;;;5056563;28;20048;-78
2022/11/18 06:16:29;;;;;;;44.13;25.70;;;8.40;99.90;;;;;;5056362;28;20033;-78
2022/11/18 06:18:55;;;;;;;44.65;25.58;;;8.50;99.90;;;;;;5049803;28;20052;-78
2022/11/18 06:21:22;;;;;;;46.80;26.45;;;8.40;99.90;;;;;;5054308;28;20025;-78
2022/11/18 06:23:48;;;;;;;44.67;25.80;;;8.40;99.90;;;;;;5042784;28;20484;-78
2022/11/18 06:26:15;;;;;;;50.58;27.58;;;8.40;99.90;;;;;;5056660;28;20051;-78
2022/11/18 06:28:42;;;;;;;49.20;28.00;;;8.40;99.90;;;;;;5049929;28;20033;-78
2022/11/18 06:31:08;;;;;;;48.03;27.90;;;8.40;99.90;;;;;;5045282;28;20065;-78
2022/11/18 06:33:34;;;;;;;50.83;29.08;;;8.40;99.90;;;;;;5060736;28;20064;-78
2022/11/18 06:35:59;;;;;;;52.35;28.67;;;8.40;99.90;;;;;;5052181;28;20542;-78
2022/11/18 06:38:25;;;;;;;54.47;28.52;;;8.40;99.90;;;;;;5043473;28;20037;-78
2022/11/18 06:40:50;;;;;;;46.20;27.33;;;8.40;99.90;;;;;;5018073;28;20040;-78
2022/11/18 06:48:46;;;;;;;43.67;27.17;;;8.40;99.90;;;;;;5043611;28;20043;-78
2022/11/18 06:51:12;;;;;;;44.53;26.17;;;8.40;99.90;;;;;;5029354;28;20492;-78
2022/11/18 06:53:38;;;;;;;42.60;25.58;;;8.80;99.90;;;;;;5021118;28;20516;-78
2022/11/18 06:56:08;;;;;;;44.55;25.90;;;8.60;99.90;;;;;;5024914;28;20033;-78
2022/11/18 06:58:34;;;;;;;41.88;25.73;;;8.40;99.90;;;;;;5043483;28;20044;-78
2022/11/18 07:01:20;;;;;;;43.05;26.20;;;7.90;99.90;;;;;;5031620;28;20041;-77
2022/11/18 07:03:46;;;;;;;43.88;26.20;;;8.40;99.90;;;;;;5054135;28;20037;-77
2022/11/18 07:06:15;;;;;;;42.55;25.98;;;8.30;99.90;;;;;;5053295;28;20045;-78
2022/11/18 07:08:41;;;;;;;45.50;27.60;;;8.30;99.90;;;;;;5048578;28;20497;-77
2022/11/18 07:11:10;;;;;;;42.78;25.98;;;8.30;99.90;;;;;;5047367;28;20049;-77
2022/11/18 07:13:36;;;;;;;44.33;26.38;;;8.30;99.90;;;;;;5063791;28;20477;-77
2022/11/18 07:16:13;;;;;;;42.15;24.73;;;8.30;99.90;;;;;;5053657;28;20507;-78
2022/11/18 07:18:41;;;;;;;44.22;26.17;;;8.30;99.90;;;;;;5052760;28;20130;-78
2022/11/18 07:21:09;;;;;;;43.40;26.20;;;8.30;99.90;;;;;;5060129;28;20440;-77
2022/11/18 07:23:35;;;;;;;45.42;25.63;;;8.90;99.90;;;;;;5047904;28;20049;-78
2022/11/18 07:26:02;;;;;;;42.92;26.33;;;8.30;99.90;;;;;;5056517;28;20064;-79
2022/11/18 07:28:28;;;;;;;38.97;25.02;;;8.40;99.90;;;;;;5032816;28;20044;-78
2022/11/18 07:31:06;;;;;;;38.83;23.45;;;9.30;99.90;;;;;;5049688;28;20485;-77
2022/11/18 07:33:32;;;;;;;42.42;25.08;;;8.30;99.90;;;;;;5036020;28;20489;-77
2022/11/18 07:36:03;;;;;;;44.60;26.40;;;8.30;99.90;;;;;;5039366;28;20040;-77
2022/11/18 07:38:29;;;;;;;41.60;25.10;;;9.10;99.90;;;;;;5065449;28;20043;-78
2022/11/18 07:41:01;;;;;;;40.22;24.58;;;8.30;99.90;;;;;;5054297;28;20311;-78
2022/11/18 07:43:27;;;;;;;;;;;8.30;99.90;;;;;;5069979;28;20041;-80
2022/11/18 07:45:53;;;;;;;40.25;23.77;;;8.30;99.90;;;;;;5035628;28;19931;-79
2022/11/18 07:48:19;;;;;;;38.42;23.55;;;8.30;99.90;;;;;;5049901;28;20131;-77
2022/11/18 07:50:45;;;;;;;41.80;22.70;;;8.30;99.90;;;;;;5055890;28;20036;-78
2022/11/18 07:53:11;;;;;;;39.25;22.88;;;8.30;99.90;;;;;;5050153;28;20118;-78
2022/11/18 07:55:36;;;;;;;38.65;23.10;;;8.30;99.90;;;;;;5054644;28;20390;-78
2022/11/18 07:58:03;;;;;;;34.85;22.05;;;8.30;99.90;;;;;;5049799;28;20088;-78
2022/11/18 08:00:29;;;;;;;39.47;23.13;;;8.30;99.90;;;;;;5031693;28;20037;-78
2022/11/18 08:02:55;;;;;;;35.10;21.98;;;8.40;99.90;;;;;;5034414;28;20101;-79
2022/11/18 08:05:20;;;;;;;36.85;22.42;;;8.30;99.90;;;;;;5056908;28;20049;-77
2022/11/18 08:07:46;;;;;;;35.90;21.98;;;9.40;99.90;;;;;;5055167;28;20059;-78
2022/11/18 08:10:11;;;;;;;34.13;20.45;;;8.30;99.90;;;;;;5056466;28;20417;-78
2022/11/18 08:12:37;;;;;;;34.78;21.63;;;9.00;99.90;;;;;;5052234;28;20369;-78
2022/11/18 08:15:03;;;;;;;33.95;21.08;;;8.30;99.90;;;;;;5051366;28;20118;-78
2022/11/18 08:17:28;;;;;;;35.58;20.23;;;8.30;99.90;;;;;;5052786;28;20037;-78
2022/11/18 08:19:54;;;;;;;29.90;19.52;;;8.30;99.90;;;;;;5053501;28;20098;-78
2022/11/18 08:22:19;;;;;;;29.55;18.70;;;8.30;99.90;;;;;;5030167;28;20040;-78
2022/11/18 08:24:48;;;;;;;30.27;18.95;;;8.30;99.90;;;;;;5052059;28;20037;-77
2022/11/18 08:27:26;;;;;;;30.48;18.45;;;8.30;99.90;;;;;;5054781;28;20048;-77
2022/11/18 08:29:51;;;;;;;29.70;18.75;;;8.30;99.90;;;;;;5053421;28;20044;-78
2022/11/18 08:32:18;;;;;;;30.67;18.38;;;8.30;99.90;;;;;;5051823;28;20120;-79
2022/11/18 08:34:44;;;;;;;29.25;17.48;;;8.30;99.90;;;;;;5061508;28;20068;-78
2022/11/18 08:37:09;;;;;;;29.45;18.40;;;8.30;99.90;;;;;;5049917;28;20037;-77
2022/11/18 08:39:37;;;;;;;27.45;17.65;;;8.30;99.90;;;;;;5044186;28;20370;-77
2022/11/18 08:42:02;;;;;;;30.08;18.42;;;8.30;99.90;;;;;;5059139;28;20091;-78
2022/11/18 08:44:30;;;;;;;30.48;18.80;;;8.30;99.90;;;;;;5038385;28;20044;-77
2022/11/18 08:46:55;;;;;;;27.08;18.38;;;8.30;99.90;;;;;;5059732;28;20505;-78
2022/11/18 08:49:21;;;;;;;29.45;19.33;;;8.30;99.90;;;;;;5055083;28;20041;-77
2022/11/18 08:51:46;;;;;;;28.98;18.30;;;8.30;99.90;;;;;;5058215;28;20075;-77
2022/11/18 08:54:12;;;;;;;33.13;21.52;;;8.40;99.90;;;;;;5065100;28;20404;-77
2022/11/18 08:59:24;;;;;;;27.83;18.17;;;8.30;99.90;;;;;;5055845;28;20602;-77
2022/11/18 09:01:50;;;;;;;29.52;21.38;;;8.40;99.90;;;;;;5049011;28;20029;-77
2022/11/18 09:04:16;;;;;;;30.25;21.27;;;8.40;99.90;;;;;;5058515;28;20076;-78
2022/11/18 09:06:45;;;;;;;30.30;20.13;;;8.40;99.90;;;;;;5059833;28;20029;-78
2022/11/18 09:09:10;;;;;;;29.10;18.33;;;8.30;99.90;;;;;;5062800;28;20044;-78
2022/11/18 09:11:38;;;;;;;31.10;20.63;;;8.40;99.90;;;;;;5052819;28;20393;-78
2022/11/18 09:14:03;;;;;;;29.45;19.00;;;8.40;99.90;;;;;;5059680;28;20051;-77
2022/11/18 09:16:31;;;;;;;30.25;19.73;;;8.60;99.90;;;;;;5036599;28;20025;-78
2022/11/18 09:18:57;;;;;;;28.23;19.23;;;8.40;99.90;;;;;;5052880;28;20029;-78
2022/11/18 09:21:23;;;;;;;33.47;20.00;;;8.40;99.90;;;;;;5050579;28;20032;-77
2022/11/18 09:23:49;;;;;;;31.17;19.58;;;8.40;99.90;;;;;;5031769;28;20048;-77
2022/11/18 09:26:18;;;;;;;31.83;18.67;;;8.40;99.90;;;;;;5041869;28;20045;-77
2022/11/18 09:28:46;;;;;;;30.90;21.05;;;8.40;99.90;;;;;;5032671;28;20485;-76
2022/11/18 09:31:16;;;;;;;32.50;18.70;;;8.40;99.90;;;;;;5050437;28;20091;-78
2022/11/18 09:33:42;;;;;;;30.17;18.77;;;8.50;99.90;;;;;;5051824;28;20068;-78
2022/11/18 09:36:22;;;;;;;30.35;18.70;;;8.50;99.90;;;;;;5041175;28;20040;-77
2022/11/18 09:38:48;;;;;;;29.05;18.67;;;8.40;99.90;;;;;;5033342;28;20649;-77
2022/11/18 09:41:46;;;;;;;32.05;19.27;;;9.10;99.90;;;;;;5033270;28;20397;-77
2022/11/18 09:44:30;;;;;;;31.30;19.45;;;8.50;99.90;;;;;;5034934;28;20088;-77
2022/11/18 09:47:05;;;;;;;30.92;20.80;;;8.50;99.90;;;;;;5032141;28;20037;-77
2022/11/18 09:49:39;;;;;;;33.83;19.65;;;8.50;99.90;;;;;;5048427;28;20425;-78
2022/11/18 09:52:11;;;;;;;28.25;17.77;;;8.50;99.90;;;;;;5048772;28;20048;-77
2022/11/18 09:54:37;;;;;;;26.60;18.73;;;9.10;99.90;;;;;;5034582;28;20037;-77
2022/11/18 09:57:13;;;;;;;27.60;18.85;;;9.00;99.90;;;;;;5047718;28;20385;-78
2022/11/18 09:59:40;;;;;;;27.52;17.77;;;9.00;99.90;;;;;;5052423;28;20040;-77
2022/11/18 10:02:27;;;;;;;24.88;16.70;;;8.50;99.90;;;;;;5046029;28;20040;-78
2022/11/18 10:04:55;;;;;;;27.88;15.80;;;8.50;99.90;;;;;;5050003;28;20272;-79
2022/11/18 10:07:46;;;;;;;25.40;16.00;;;8.50;99.90;;;;;;5046993;28;20100;-78
2022/11/18 10:10:19;;;;;;;21.42;14.85;;;8.50;99.90;;;;;;5032904;28;20515;-78
2022/11/18 10:12:55;;;;;;;23.88;14.50;;;8.50;99.90;;;;;;5054852;28;20044;-78
2022/11/18 10:15:38;;;;;;;23.98;15.40;;;8.50;99.90;;;;;;5049472;28;20033;-78
2022/11/18 10:18:26;;;;;;;26.00;15.40;;;8.60;99.90;;;;;;5052632;28;20037;-77
2022/11/18 10:21:00;;;;;;;25.20;16.05;;;8.60;99.90;;;;;;5051754;28;20037;-78
2022/11/18 10:23:34;;;;;;;29.75;17.13;;;8.60;99.90;;;;;;5042368;28;20113;-77
2022/11/18 10:26:00;;;;;;;26.42;17.92;;;8.60;99.90;;;;;;5045949;28;20125;-77
2022/11/18 10:28:29;;;;;;;27.23;17.75;;;8.60;99.90;;;;;;5054869;28;20814;-78
2022/11/18 10:31:10;;;;;;;26.17;16.25;;;8.60;99.90;;;;;;5058419;28;20525;-77
2022/11/18 10:33:37;;;;;;;29.45;17.45;;;8.60;99.90;;;;;;5048095;28;20112;-78
2022/11/18 10:36:38;;;;;;;28.50;17.13;;;8.60;99.90;;;;;;5053411;28;20079;-79
2022/11/18 10:39:14;;;;;;;28.77;17.70;;;8.60;99.90;;;;;;4967201;28;20062;-78
2022/11/18 10:41:52;;;;;;;30.75;17.73;;;8.60;99.90;;;;;;5049294;28;20060;-78
2022/11/18 10:44:34;;;;;;;33.20;19.58;;;8.60;99.90;;;;;;5053260;28;20511;-77
2022/11/18 10:47:25;;;;;;;32.58;19.77;;;8.60;99.90;;;;;;5053475;28;20041;-78
2022/11/18 10:50:20;;;;;;;30.58;19.88;;;8.60;99.90;;;;;;5046905;28;20037;-78
2022/11/18 10:52:52;;;;;;;30.15;19.90;;;8.60;99.90;;;;;;5048046;28;20047;-77
2022/11/18 10:55:21;;;;;;;30.17;19.48;;;8.60;99.90;;;;;;5031967;28;20097;-77
2022/11/18 10:57:49;;;;;;;30.23;18.60;;;8.60;99.90;;;;;;5045134;28;20567;-78
2022/11/18 11:00:34;;;;;;;28.83;18.92;;;8.50;99.90;;;;;;5054787;28;20056;-79
2022/11/18 11:03:00;;;;;;;29.00;17.92;;;8.50;99.90;;;;;;5030841;28;20080;-79
2022/11/18 11:05:26;;;;;;;29.77;19.20;;;8.50;99.90;;;;;;5044903;28;20051;-79
2022/11/18 11:08:04;;;;;;;32.03;19.45;;;9.10;99.90;;;;;;5027317;28;20116;-79
2022/11/18 11:10:30;;;;;;;28.80;18.77;;;8.50;99.90;;;;;;5052705;28;20037;-79
2022/11/18 11:13:04;;;;;;;33.65;21.83;;;9.20;99.90;;;;;;5060178;28;20492;-76
2022/11/18 11:15:43;;;;;;;101.93;23.85;;;8.60;99.90;;;;;;5049333;28;20104;-76
2022/11/18 11:18:41;;;;;;;29.33;19.23;;;8.60;99.90;;;;;;5053652;28;20444;-76
2022/11/18 11:21:12;;;;;;;32.15;19.00;;;8.60;99.90;;;;;;5058605;28;20512;-76
2022/11/18 11:23:38;;;;;;;29.38;17.77;;;8.60;99.90;;;;;;5052243;28;20040;-74
2022/11/18 11:26:20;;;;;;;27.77;17.90;;;8.60;99.90;;;;;;5055033;28;20033;-76
2022/11/18 11:29:04;;;;;;;27.92;17.25;;;8.60;99.90;;;;;;5043201;28;20044;-75
2022/11/18 11:31:39;;;;;;;25.73;16.48;;;8.70;99.90;;;;;;5057397;28;20040;-76
2022/11/18 11:34:37;;;;;;;24.75;16.05;;;8.70;99.90;;;;;;5040283;28;20041;-78
2022/11/18 11:37:18;;;;;;;40.90;26.38;;;8.70;99.90;;;;;;5036162;28;20038;-78
2022/11/18 11:39:57;;;;;;;28.67;19.45;;;8.70;99.90;;;;;;5047328;28;20043;-79
2022/11/18 11:42:41;;;;;;;24.05;15.90;;;8.70;99.90;;;;;;5052574;28;20508;-77
2022/11/18 11:45:34;;;;;;;20.05;13.98;;;8.70;99.90;;;;;;5038559;28;20048;-79
2022/11/18 11:48:25;;;;;;;18.50;12.60;;;8.60;99.90;;;;;;5035803;28;20090;-77
2022/11/18 11:50:59;;;;;;;17.70;11.90;;;8.60;99.90;;;;;;5038256;28;20067;-78
2022/11/18 11:53:40;;;;;;;15.30;10.68;;;9.00;99.90;;;;;;5031402;28;20060;-78
2022/11/18 11:56:29;;;;;;;16.27;10.68;;;8.60;99.90;;;;;;5023726;28;20033;-77
2022/11/18 11:59:07;;;;;;;14.75;9.77;;;8.60;99.90;;;;;;5031707;28;20041;-77
2022/11/18 12:01:51;;;;;;;16.52;10.77;;;8.60;99.90;;;;;;5032129;28;20033;-77
2022/11/18 12:04:26;;;;;;;16.50;11.43;;;8.60;99.90;;;;;;5049328;28;20041;-77
2022/11/18 12:06:53;;;;;;;14.82;9.93;;;8.60;99.90;;;;;;5022771;28;20040;-77
2022/11/18 12:09:42;;;;;;;14.55;10.10;;;8.90;99.90;;;;;;5037723;28;20256;-77
2022/11/18 12:12:33;;;;;;;13.52;8.90;;;8.60;99.90;;;;;;5037127;28;20041;-78
2022/11/18 12:15:10;;;;;;;14.68;9.50;;;8.50;99.90;;;;;;5041128;28;20046;-77
2022/11/18 12:18:04;;;;;;;13.55;9.50;;;8.50;99.90;;;;;;5031487;28;20040;-77
2022/11/18 12:20:46;;;;;;;15.32;9.23;;;8.50;99.90;;;;;;5034796;28;20037;-77
2022/11/18 12:23:19;;;;;;;13.10;9.50;;;8.10;99.90;;;;;;5038067;28;20041;-77
2022/11/18 12:25:47;;;;;;;12.68;8.77;;;8.40;99.90;;;;;;5036074;28;20119;-77
2022/11/18 12:28:35;;;;;;;19.00;10.32;;;8.40;99.90;;;;;;5045517;28;20060;-77
2022/11/18 12:31:22;;;;;;;13.70;9.27;;;8.40;99.90;;;;;;5052044;28;20036;-77
2022/11/18 12:33:52;;;;;;;14.73;9.55;;;8.40;99.90;;;;;;5025369;28;20045;-77
2022/11/18 12:36:31;;;;;;;13.25;8.38;;;7.80;99.90;;;;;;5041144;28;20135;-79
2022/11/18 12:39:03;;;;;;;11.95;8.23;;;8.40;99.90;;;;;;5042318;28;20051;-77
2022/11/18 12:44:27;;;;;;;13.05;9.07;;;9.00;99.90;;;;;;4999560;28;20045;-77
2022/11/18 12:47:03;;;;;;;12.65;7.68;;;9.00;99.90;;;;;;5036461;28;20375;-76
2022/11/18 12:49:29;;;;;;;12.75;8.40;;;8.30;99.90;;;;;;5049604;28;20060;-77
2022/11/18 12:52:02;;;;;;;14.55;8.13;;;8.30;99.90;;;;;;5047533;28;20130;-77
2022/11/18 12:54:39;;;;;;;13.57;8.52;;;8.30;99.90;;;;;;5044390;28;20123;-77
2022/11/18 12:57:22;;;;;;;14.23;7.88;;;8.50;99.90;;;;;;5053564;28;20505;-77
2022/11/18 12:59:48;;;;;;;15.32;10.57;;;8.40;99.90;;;;;;5032795;28;20044;-77
2022/11/18 13:02:26;;;;;;;14.93;9.50;;;9.30;99.90;;;;;;5025105;28;20083;-78
2022/11/18 13:05:05;;;;;;;14.52;8.98;;;8.20;99.90;;;;;;5053757;28;20115;-78
2022/11/18 13:10:25;;;;;;;14.18;8.10;;;8.20;99.90;;;;;;5062896;28;20082;-78
2022/11/18 13:12:51;;;;;;;13.65;8.00;;;8.10;99.90;;;;;;5057920;28;20090;-77
2022/11/18 13:18:20;;;;;;;18.75;11.93;;;8.10;99.90;;;;;;5047486;28;20037;-77
2022/11/18 13:20:56;;;;;;;16.92;10.70;;;8.10;99.90;;;;;;5048537;28;20051;-76
2022/11/18 13:26:18;;;;;;;18.40;10.50;;;8.00;99.90;;;;;;5033099;28;20449;-78